Time;durP1;ratioP1;P1;durP2;ratioP2;P2;SDS_P1;SDS_P2;PMS_P1;PMS_P2;Temp;Humidity;BMP_temperature;BMP_pressure;BME280_temperature;BME280_humidity;BME280_pressure;Samples;Min_cycle;Max_cycle;Signal;HPM_P1;HPM_P2
2022/12/25 00:01:20;;;;;;;68.80;47.77;;;;;;;2.19;100.00;100660.62;1394285;88;22248;-86
2022/12/25 00:03:47;;;;;;;71.50;48.40;;;;;;;2.06;100.00;100656.55;1408723;88;22202;-85
2022/12/25 00:06:13;;;;;;;62.73;44.97;;;;;;;2.05;100.00;100667.93;1397810;88;22303;-87
2022/12/25 00:08:40;;;;;;;66.83;44.60;;;;;;;2.05;100.00;100667.93;1398844;88;22756;-87
2022/12/25 00:11:13;;;;;;;63.03;43.07;;;;;;;1.92;100.00;100654.71;1390975;88;22055;-83
2022/12/25 00:13:40;;;;;;;64.47;43.97;;;;;;;1.92;100.00;100654.71;1545168;88;22043;-84
2022/12/25 00:16:17;;;;;;;68.20;44.77;;;;;;;1.95;100.00;100669.36;1538684;88;22032;-87
2022/12/25 00:18:44;;;;;;;66.83;45.57;;;;;;;1.89;100.00;100669.24;1573053;86;22170;-84
2022/12/25 00:21:11;;;;;;;69.83;47.77;;;;;;;1.89;100.00;100669.24;1414330;86;23249;-85
2022/12/25 00:23:38;;;;;;;76.23;49.30;;;;;;;1.87;100.00;100674.16;1384675;89;21902;-84
2022/12/25 00:26:07;;;;;;;79.37;47.83;;;;;;;1.82;100.00;100678.83;1470125;88;21793;-84
2022/12/25 00:28:34;;;;;;;64.57;41.63;;;;;;;1.81;100.00;100675.34;1469419;88;21933;-86
2022/12/25 00:31:11;;;;;;;62.73;40.30;;;;;;;1.81;100.00;100675.34;1451835;89;22113;-86
2022/12/25 00:33:40;;;;;;;57.50;38.60;;;;;;;1.83;100.00;100675.28;1462058;88;22812;-87
2022/12/25 00:36:09;;;;;;;57.43;39.13;;;;;;;1.87;100.00;100676.78;1477276;87;22525;-86
2022/12/25 00:38:37;;;;;;;51.03;34.70;;;;;;;1.99;100.00;100669.59;1466897;88;22044;-84
2022/12/25 00:41:13;;;;;;;60.83;38.27;;;;;;;2.01;100.00;100671.63;1473479;88;21812;-86
2022/12/25 00:43:41;;;;;;;61.27;38.40;;;;;;;2.01;100.00;100671.63;1464654;88;22057;-87
2022/12/25 00:46:09;;;;;;;57.77;38.50;;;;;;;2.07;100.00;100681.71;1470349;88;21934;-86
2022/12/25 00:48:35;;;;;;;60.17;40.93;;;;;;;2.10;100.00;100694.63;1371794;89;23230;-85
2022/12/25 00:51:05;;;;;;;55.90;37.77;;;;;;;2.13;100.00;100702.28;1387570;88;22043;-84
2022/12/25 00:53:32;;;;;;;51.83;33.70;;;;;;;2.22;100.00;100713.50;1388727;89;22104;-85
2022/12/25 00:56:05;;;;;;;48.17;32.27;;;;;;;2.30;100.00;100721.36;1395410;87;21823;-86
2022/12/25 00:58:33;;;;;;;48.03;32.77;;;;;;;2.37;100.00;100717.48;1542767;88;22044;-86
2022/12/25 01:00:59;;;;;;;48.77;33.73;;;;;;;2.37;100.00;100717.48;1367546;89;22046;-85
2022/12/25 01:03:26;;;;;;;48.90;33.87;;;;;;;2.39;100.00;100723.00;1400470;88;22160;-86
2022/12/25 01:06:02;;;;;;;44.63;31.63;;;;;;;2.44;100.00;100718.80;1520359;89;22088;-86
2022/12/25 01:08:31;;;;;;;53.23;33.73;;;;;;;2.47;100.00;100713.39;1389176;89;22058;-87
2022/12/25 01:11:03;;;;;;;57.53;37.17;;;;;;;2.47;100.00;100713.39;1381574;89;22176;-85
2022/12/25 01:13:31;;;;;;;53.00;36.70;;;;;;;2.55;100.00;100722.10;1388557;88;22093;-84
2022/12/25 01:15:57;;;;;;;62.13;40.40;;;;;;;2.56;100.00;100723.34;1523736;88;21992;-85
2022/12/25 01:18:24;;;;;;;66.00;39.60;;;;;;;2.56;100.00;100725.95;1426053;88;23238;-85
2022/12/25 01:20:51;;;;;;;71.80;40.77;;;;;;;2.56;100.00;100727.69;1468558;88;22159;-85
2022/12/25 01:23:17;;;;;;;67.10;39.60;;;;;;;2.58;100.00;100727.98;1460023;88;22148;-88
2022/12/25 01:25:43;;;;;;;65.83;35.47;;;;;;;2.62;100.00;100726.89;1469077;88;23206;-87
2022/12/25 01:28:10;;;;;;;56.47;34.97;;;;;;;2.60;100.00;100720.91;1475387;88;22177;-86
2022/12/25 01:30:36;;;;;;;63.17;36.10;;;;;;;2.60;100.00;100720.91;1462520;88;21591;-87
2022/12/25 01:33:02;;;;;;;58.97;36.17;;;;;;;2.69;100.00;100726.06;1470905;88;22127;-85
2022/12/25 01:35:28;;;;;;;55.63;34.47;;;;;;;2.69;100.00;100730.81;1461632;88;22251;-84
2022/12/25 01:37:55;;;;;;;46.87;32.40;;;;;;;2.66;100.00;100729.69;1457519;88;22811;-84
2022/12/25 01:40:21;;;;;;;55.33;37.47;;;;;;;2.62;100.00;100731.28;1462425;88;22084;-87
2022/12/25 01:42:48;;;;;;;55.33;36.10;;;;;;;2.59;100.00;100728.37;1474284;87;22179;-85
2022/12/25 01:45:46;;;;;;;55.60;37.20;;;;;;;2.59;100.00;100729.69;1461796;88;22411;-85
2022/12/25 01:48:16;;;;;;;55.57;35.00;;;;;;;2.58;100.00;100721.45;1468870;88;22185;-87
2022/12/25 01:50:56;;;;;;;54.58;34.75;;;;;;;2.61;100.00;100721.27;1471055;88;22103;-87
2022/12/25 01:53:24;;;;;;;47.97;32.80;;;;;;;2.58;100.00;100718.84;1556392;88;21492;-85
2022/12/25 01:55:55;;;;;;;54.77;37.13;;;;;;;2.57;100.00;100724.17;1394066;88;23006;-83
2022/12/25 01:58:22;;;;;;;50.52;33.55;;;;;;;2.51;100.00;100724.05;1556290;88;22104;-86
2022/12/25 02:00:51;;;;;;;47.37;32.57;;;;;;;2.42;100.00;100728.05;1395713;88;22418;-87
2022/12/25 02:03:19;;;;;;;51.43;35.77;;;;;;;2.35;100.00;100730.61;1394039;88;22126;-87
2022/12/25 02:05:46;;;;;;;53.20;33.67;;;;;;;2.31;100.00;100743.95;1394542;88;22134;-85
2022/12/25 02:08:16;;;;;;;54.07;34.27;;;;;;;2.23;100.00;100746.52;1395765;88;22244;-87
2022/12/25 02:10:43;;;;;;;45.77;30.70;;;;;;;2.18;100.00;100740.70;1392509;88;22141;-87
2022/12/25 02:13:14;;;;;;;43.00;28.63;;;;;;;2.15;100.00;100741.34;1393781;88;22125;-87
2022/12/25 02:16:11;;;;;;;41.97;28.67;;;;;;;2.15;100.00;100744.80;1556099;88;22291;-86
2022/12/25 02:18:48;;;;;;;50.73;31.93;;;;;;;2.14;100.00;100741.81;1555822;88;22945;-85
2022/12/25 02:21:39;;;;;;;64.70;40.20;;;;;;;2.15;100.00;100747.88;1392834;90;23081;-88
2022/12/25 02:24:30;;;;;;;52.85;33.42;;;;;;;2.13;100.00;100755.81;1400353;88;21974;-87
2022/12/25 02:27:27;;;;;;;38.00;25.23;;;;;;;2.08;100.00;100763.05;1550127;88;21501;-84
2022/12/25 02:30:06;;;;;;;36.90;24.30;;;;;;;2.07;100.00;100773.56;1550470;88;21435;-85
2022/12/25 02:34:01;;;;;;;31.97;21.77;;;;;;;2.10;100.00;100779.48;1550454;88;22076;-85
2022/12/25 02:35:26;;;;;;;29.33;17.80;;;;;;;2.08;100.00;100773.50;1479510;88;22307;-87
2022/12/25 02:38:06;;;;;;;28.95;18.05;;;;;;;2.08;100.00;100773.50;1473328;88;22241;-87
2022/12/25 02:40:46;;;;;;;27.37;18.23;;;;;;;2.15;100.00;100783.97;1470908;88;21602;-84
2022/12/25 03:08:48;;;;;;;30.97;17.50;;;;;;;1.72;100.00;100777.64;1469909;88;21774;-86
2022/12/25 03:11:32;;;;;;;38.30;17.52;;;;;;;1.76;100.00;100783.09;1475049;88;22859;-87
2022/12/25 03:16:56;;;;;;;27.60;15.80;;;;;;;1.83;100.00;100805.31;1471385;88;21926;-84
2022/12/25 03:27:46;;;;;;;27.30;15.07;;;;;;;1.74;100.00;100817.08;1475644;88;21948;-84
2022/12/25 03:33:38;;;;;;;40.57;17.63;;;;;;;1.70;100.00;100812.97;1473404;88;21830;-84
2022/12/25 03:36:13;;;;;;;25.40;14.60;;;;;;;1.57;100.00;100808.00;1470171;88;21855;-84
2022/12/25 04:37:52;;;;;;;36.17;18.60;;;;;;;0.67;100.00;100852.05;1475929;88;21766;-85
2022/12/25 04:40:19;;;;;;;29.40;15.87;;;;;;;0.65;100.00;100842.62;1465574;88;22678;-87
2022/12/25 04:42:46;;;;;;;31.20;17.33;;;;;;;0.64;100.00;100836.57;1470601;88;22345;-86
2022/12/25 04:45:12;;;;;;;32.87;16.60;;;;;;;0.63;100.00;100826.21;1480559;88;21514;-87
2022/12/25 04:47:39;;;;;;;28.60;14.90;;;;;;;0.64;100.00;100833.13;1471864;88;21787;-87
2022/12/25 04:50:07;;;;;;;28.73;16.00;;;;;;;0.62;100.00;100839.70;1472437;88;21850;-87
2022/12/25 04:52:39;;;;;;;26.43;16.33;;;;;;;0.60;100.00;100844.59;1472533;88;22575;-88
2022/12/25 04:55:07;;;;;;;34.20;19.27;;;;;;;0.57;100.00;100848.65;1474740;88;21885;-86
2022/12/25 04:57:34;;;;;;;32.03;18.37;;;;;;;0.52;100.00;100848.89;1469145;88;21714;-87
2022/12/25 05:00:00;;;;;;;34.50;16.80;;;;;;;0.45;100.00;100841.80;1471617;88;21730;-87
2022/12/25 05:02:26;;;;;;;50.93;21.73;;;;;;;0.41;100.00;100846.78;1451921;88;22650;-85
2022/12/25 05:04:53;;;;;;;32.70;17.83;;;;;;;0.37;100.00;100845.22;1464942;88;21621;-85
2022/12/25 05:07:19;;;;;;;35.80;18.93;;;;;;;0.38;100.00;100849.54;1476175;88;21682;-85
2022/12/25 05:09:45;;;;;;;30.33;16.57;;;;;;;0.39;100.00;100853.81;1469729;88;22477;-87
2022/12/25 05:12:14;;;;;;;25.20;15.93;;;;;;;0.42;100.00;100860.18;1474496;88;21656;-88
2022/12/25 05:14:40;;;;;;;32.80;18.07;;;;;;;0.40;100.00;100860.73;1441753;90;21677;-88
2022/12/25 05:17:07;;;;;;;32.87;16.93;;;;;;;0.39;100.00;100862.93;1443968;90;21694;-87
2022/12/25 05:19:33;;;;;;;34.93;18.03;;;;;;;0.36;100.00;100866.14;1425169;91;22942;-87
2022/12/25 05:22:00;;;;;;;28.93;18.90;;;;;;;0.31;100.00;100868.95;1448346;90;21447;-84
2022/12/25 05:24:26;;;;;;;30.53;15.17;;;;;;;0.27;100.00;100870.02;1424556;91;21761;-85
2022/12/25 05:26:53;;;;;;;24.30;14.50;;;;;;;0.28;100.00;100881.27;1454382;90;21551;-85
2022/12/25 05:29:20;;;;;;;31.20;16.07;;;;;;;0.30;100.00;100881.59;1432346;91;21698;-86
2022/12/25 05:31:46;;;;;;;28.43;15.43;;;;;;;0.34;100.00;100877.92;1450877;90;22015;-86
2022/12/25 05:34:12;;;;;;;22.27;13.07;;;;;;;0.36;100.00;100882.61;1418404;91;21731;-88
2022/12/25 05:36:38;;;;;;;27.07;15.33;;;;;;;0.37;100.00;100894.70;1448647;90;21637;-88
2022/12/25 05:39:04;;;;;;;26.93;13.93;;;;;;;0.34;100.00;100897.45;1420198;91;21942;-86
2022/12/25 05:41:31;;;;;;;26.00;14.83;;;;;;;0.32;100.00;100908.41;1444540;90;21804;-86
2022/12/25 05:43:57;;;;;;;25.17;13.50;;;;;;;0.31;100.00;100911.91;1426527;91;21881;-86
2022/12/25 05:46:28;;;;;;;18.77;13.20;;;;;;;0.33;100.00;100912.70;1431482;90;21856;-88
2022/12/25 05:48:55;;;;;;;20.67;13.23;;;;;;;0.36;100.00;100903.44;1428052;91;21547;-87
2022/12/25 05:51:22;;;;;;;26.03;14.87;;;;;;;0.43;100.00;100898.34;1452565;90;21803;-87
2022/12/25 05:53:48;;;;;;;19.30;10.87;;;;;;;0.50;100.00;100904.57;1429671;91;21834;-87
2022/12/25 05:56:14;;;;;;;16.37;10.93;;;;;;;0.56;100.00;100908.19;1446054;90;21918;-87
2022/12/25 05:58:41;;;;;;;22.43;12.80;;;;;;;0.61;100.00;100904.91;1424520;91;21659;-87
2022/12/25 06:01:18;;;;;;;20.17;11.20;;;;;;;0.63;100.00;100909.14;1452408;89;21783;-88
2022/12/25 06:03:44;;;;;;;23.70;12.50;;;;;;;0.65;100.00;100909.89;1430558;91;21797;-86
2022/12/25 06:06:11;;;;;;;17.70;11.07;;;;;;;0.65;100.00;100916.86;1452680;90;21675;-86
2022/12/25 06:08:38;;;;;;;21.47;12.20;;;;;;;0.64;100.00;100929.05;1410070;91;21828;-88
2022/12/25 06:11:06;;;;;;;17.93;9.50;;;;;;;0.65;100.00;100925.52;1452246;90;21725;-87
2022/12/25 06:13:33;;;;;;;17.17;10.90;;;;;;;0.67;100.00;100926.77;1450172;89;21621;-88
2022/12/25 06:16:06;;;;;;;16.63;10.40;;;;;;;0.71;100.00;100936.58;1433858;91;21862;-88
2022/12/25 06:18:39;;;;;;;17.07;9.53;;;;;;;0.74;100.00;100934.66;1437140;91;21747;-86
2022/12/25 06:21:09;;;;;;;19.70;9.87;;;;;;;0.81;100.00;100945.20;1436162;91;22776;-86
2022/12/25 06:23:38;;;;;;;11.40;8.03;;;;;;;0.88;100.00;100946.58;1433101;91;21939;-87
2022/12/25 06:26:11;;;;;;;14.00;9.77;;;;;;;0.97;100.00;100950.97;1438327;91;21742;-87
2022/12/25 06:28:38;;;;;;;19.13;11.63;;;;;;;1.02;100.00;100951.14;1428982;91;21781;-87
2022/12/25 06:31:12;;;;;;;18.70;11.03;;;;;;;1.06;100.00;100955.73;1437265;91;21645;-87
2022/12/25 06:33:38;;;;;;;25.80;11.27;;;;;;;1.09;100.00;100955.59;1413921;91;21793;-88
2022/12/25 06:36:15;;;;;;;17.07;10.83;;;;;;;1.08;100.00;100962.57;1428116;91;21729;-87
2022/12/25 06:38:42;;;;;;;21.97;14.07;;;;;;;1.09;100.00;100966.02;1436252;91;21876;-86
2022/12/25 06:41:20;;;;;;;20.33;13.03;;;;;;;1.11;100.00;100978.53;1436664;90;21892;-88
2022/12/25 06:43:52;;;;;;;19.30;11.30;;;;;;;1.15;100.00;100982.66;1434263;90;21865;-83
2022/12/25 06:46:20;;;;;;;17.93;10.50;;;;;;;1.15;100.00;100982.66;1444955;90;21971;-86
2022/12/25 06:48:48;;;;;;;19.20;10.07;;;;;;;1.13;100.00;100993.65;1440948;90;21908;-87
2022/12/25 06:51:19;;;;;;;24.13;11.50;;;;;;;1.13;100.00;100993.65;1471140;88;22838;-85
2022/12/25 06:53:48;;;;;;;20.15;10.68;;;;;;;1.13;100.00;100993.65;1473363;88;22337;-84
2022/12/25 06:56:18;;;;;;;19.63;12.87;;;;;;;1.11;100.00;101000.69;1475042;88;22978;-87
2022/12/25 06:58:47;;;;;;;17.40;12.03;;;;;;;1.06;100.00;101000.05;1453244;88;21791;-87
2022/12/25 07:01:22;;;;;;;25.10;15.80;;;;;;;1.02;100.00;101008.48;1454324;88;21604;-87
2022/12/25 07:03:51;;;;;;;26.23;15.30;;;;;;;1.00;100.00;101012.92;1448574;88;22793;-87
2022/12/25 07:06:18;;;;;;;33.77;19.07;;;;;;;1.04;100.00;101005.83;1449133;88;21758;-88
2022/12/25 07:08:44;;;;;;;31.23;17.57;;;;;;;1.08;100.00;101006.89;1479405;88;21868;-88
2022/12/25 07:11:10;;;;;;;29.43;17.27;;;;;;;1.13;100.00;101013.20;1473472;88;21819;-89
2022/12/25 07:13:37;;;;;;;32.03;18.07;;;;;;;1.14;100.00;101024.00;1478368;88;21815;-87
2022/12/25 07:16:06;;;;;;;29.93;17.77;;;;;;;1.14;100.00;101024.00;1456242;88;22377;-84
2022/12/25 07:18:35;;;;;;;35.97;20.50;;;;;;;1.16;100.00;101033.91;1476042;88;22011;-87
2022/12/25 07:21:18;;;;;;;37.37;23.03;;;;;;;1.16;100.00;101036.98;1463874;88;21751;-86
2022/12/25 07:23:46;;;;;;;48.40;25.63;;;;;;;1.19;100.00;101047.27;1468520;88;22072;-85
2022/12/25 07:26:13;;;;;;;39.13;21.83;;;;;;;1.19;100.00;101047.27;1469567;88;22834;-87
2022/12/25 07:28:39;;;;;;;41.90;26.80;;;;;;;1.21;100.00;101048.89;1473106;88;21854;-88
2022/12/25 07:31:10;;;;;;;48.33;28.03;;;;;;;1.30;100.00;101053.66;1470333;88;22069;-85
2022/12/25 07:33:36;;;;;;;33.45;21.73;;;;;;;1.46;100.00;101052.92;1465726;88;21816;-85
2022/12/25 07:36:04;;;;;;;41.67;23.40;;;;;;;1.55;100.00;101060.30;1483504;88;21537;-85
2022/12/25 07:38:31;;;;;;;40.77;24.13;;;;;;;1.60;100.00;101070.05;1468552;88;21853;-83
2022/12/25 07:40:57;;;;;;;39.27;23.70;;;;;;;1.60;100.00;101071.36;1479501;88;22115;-88
2022/12/25 07:43:28;;;;;;;42.93;27.00;;;;;;;1.62;100.00;101069.99;1480562;88;21928;-87
2022/12/25 07:46:00;;;;;;;57.75;34.58;;;;;;;1.59;100.00;101056.63;1465796;88;22074;-87
2022/12/25 07:48:28;;;;;;;63.87;35.83;;;;;;;1.60;100.00;101067.45;1440722;88;21426;-88
2022/12/25 07:50:59;;;;;;;73.40;40.27;;;;;;;1.56;100.00;101067.22;1477040;88;22513;-88
2022/12/25 07:53:26;;;;;;;89.20;47.47;;;;;;;1.55;100.00;101070.73;1476921;88;21826;-85
2022/12/25 07:56:06;;;;;;;100.47;48.27;;;;;;;1.59;100.00;101072.29;1470385;88;22135;-88
2022/12/25 07:58:33;;;;;;;79.03;38.97;;;;;;;1.62;100.00;101073.45;1471412;88;21936;-88
2022/12/25 08:01:12;;;;;;;65.07;38.20;;;;;;;1.62;100.00;101073.45;1468052;88;22357;-87
2022/12/25 08:03:38;;;;;;;57.60;33.17;;;;;;;1.69;100.00;101086.56;1475822;88;23116;-86
2022/12/25 08:06:08;;;;;;;58.20;32.53;;;;;;;1.75;100.00;101075.82;1469976;88;22206;-88
2022/12/25 08:08:36;;;;;;;53.67;30.73;;;;;;;1.86;100.00;101088.81;1467295;88;22209;-88
2022/12/25 08:11:05;;;;;;;43.60;24.00;;;;;;;1.86;100.00;101088.81;1469727;88;22219;-88
2022/12/25 08:13:32;;;;;;;52.53;24.60;;;;;;;1.87;100.00;101098.33;1478138;88;22897;-88
2022/12/25 08:16:01;;;;;;;45.73;23.10;;;;;;;1.81;100.00;101107.30;1473111;88;22226;-87
2022/12/25 08:18:31;;;;;;;37.70;21.80;;;;;;;1.81;100.00;101107.30;1474230;88;22388;-87
2022/12/25 08:21:08;;;;;;;41.35;25.00;;;;;;;1.57;100.00;101113.25;1472063;88;22409;-87
2022/12/25 08:23:37;;;;;;;41.73;23.97;;;;;;;1.41;100.00;101083.59;1471087;88;22945;-88
2022/12/25 08:26:07;;;;;;;32.23;22.17;;;;;;;1.41;100.00;101083.59;1467266;88;22334;-85
2022/12/25 08:28:34;;;;;;;30.23;20.30;;;;;;;1.51;100.00;101092.68;1472080;88;22191;-87
2022/12/25 08:31:17;;;;;;;30.07;19.13;;;;;;;1.49;100.00;101106.25;1479508;88;22182;-87
2022/12/25 08:33:44;;;;;;;33.50;18.77;;;;;;;1.58;100.00;101118.41;1474158;88;22160;-89
2022/12/25 08:36:12;;;;;;;22.07;15.30;;;;;;;1.46;100.00;101122.05;1473832;88;22332;-89
2022/12/25 08:38:39;;;;;;;27.03;19.77;;;;;;;1.46;100.00;101122.05;1478237;88;22112;-85
2022/12/25 08:41:07;;;;;;;25.90;17.30;;;;;;;1.27;100.00;101134.66;1473460;88;22142;-88
2022/12/25 08:43:33;;;;;;;25.17;18.50;;;;;;;1.21;100.00;101124.52;1467948;88;23193;-87
2022/12/25 08:46:02;;;;;;;23.43;18.30;;;;;;;1.29;100.00;101132.80;1461780;88;22093;-88
2022/12/25 08:48:28;;;;;;;27.73;17.37;;;;;;;1.25;100.00;101133.87;1457631;88;22209;-86
2022/12/25 08:50:55;;;;;;;25.13;16.90;;;;;;;1.41;100.00;101154.02;1474376;88;21887;-88
2022/12/25 08:53:22;;;;;;;28.80;19.23;;;;;;;1.60;100.00;101152.24;1470096;88;22099;-87
2022/12/25 08:55:49;;;;;;;28.27;17.47;;;;;;;1.60;100.00;101152.24;1476055;88;22218;-88
2022/12/25 08:58:15;;;;;;;31.10;19.17;;;;;;;1.73;100.00;101146.00;1477561;88;22159;-86
2022/12/25 09:00:41;;;;;;;43.33;20.53;;;;;;;1.78;100.00;101150.08;1486012;88;22125;-88
2022/12/25 09:03:08;;;;;;;32.50;20.13;;;;;;;1.77;100.00;101155.36;1477958;88;22351;-84
2022/12/25 09:05:35;;;;;;;34.47;20.50;;;;;;;1.73;100.00;101153.36;1487365;88;22098;-86
2022/12/25 09:08:02;;;;;;;35.07;22.50;;;;;;;1.81;100.00;101152.98;1479244;88;22326;-86
2022/12/25 09:10:28;;;;;;;36.77;21.90;;;;;;;1.98;100.00;101161.30;1471074;88;22179;-87
2022/12/25 09:12:54;;;;;;;45.07;26.77;;;;;;;2.19;100.00;101160.27;1471475;88;22246;-85
2022/12/25 09:15:21;;;;;;;54.50;29.17;;;;;;;2.44;100.00;101162.95;1489798;88;22136;-87
2022/12/25 09:17:47;;;;;;;43.40;24.50;;;;;;;2.62;100.00;101163.33;1494018;88;22105;-85
2022/12/25 09:20:13;;;;;;;76.53;32.57;;;;;;;2.79;100.00;101158.55;1491419;88;21515;-86
2022/12/25 09:22:39;;;;;;;63.80;36.10;;;;;;;2.93;100.00;101151.27;1488438;88;23106;-82
2022/12/25 09:25:06;;;;;;;42.30;27.47;;;;;;;3.06;100.00;101151.01;1484505;88;21486;-83
2022/12/25 09:27:32;;;;;;;48.37;27.37;;;;;;;3.18;100.00;101144.27;1476121;88;21507;-89
2022/12/25 09:29:58;;;;;;;42.10;27.27;;;;;;;3.32;100.00;101142.22;1472839;88;21575;-88
2022/12/25 09:32:25;;;;;;;65.63;36.90;;;;;;;3.32;100.00;101148.30;1481607;88;21441;-89
2022/12/25 09:34:51;;;;;;;43.03;25.93;;;;;;;3.44;100.00;101155.94;1467687;88;21441;-85
2022/12/25 09:37:18;;;;;;;45.43;28.73;;;;;;;3.63;100.00;101147.92;1474442;88;23071;-88
2022/12/25 09:39:44;;;;;;;70.07;29.77;;;;;;;3.79;100.00;101145.28;1458505;88;21611;-88
2022/12/25 09:42:25;;;;;;;56.20;38.83;;;;;;;3.93;100.00;101151.05;1474341;88;21404;-89
2022/12/25 09:45:06;;;;;;;63.68;39.98;;;;;;;4.04;100.00;101150.81;1474918;88;22048;-87
2022/12/25 09:47:36;;;;;;;65.72;39.40;;;;;;;4.23;100.00;101147.12;1469916;88;21493;-85
2022/12/25 09:50:18;;;;;;;60.03;38.33;;;;;;;4.41;100.00;101148.68;1477857;88;21448;-87
2022/12/25 09:52:56;;;;;;;53.17;28.20;;;;;;;4.77;100.00;101152.66;1468303;88;21529;-86
2022/12/25 09:55:25;;;;;;;43.30;30.10;;;;;;;5.12;100.00;101144.41;1475607;88;21530;-88
2022/12/25 09:57:56;;;;;;;48.70;33.13;;;;;;;5.78;100.00;101146.36;1478252;88;21625;-86
2022/12/25 10:00:26;;;;;;;64.00;45.75;;;;;;;6.28;99.80;101157.14;1470038;88;21368;-87
2022/12/25 10:03:26;;;;;;;36.08;25.65;;;;;;;7.04;87.32;101156.81;1465193;88;21626;-86
2022/12/25 10:06:37;;;;;;;28.35;20.27;;;;;;;7.04;87.32;101156.81;1476134;88;21397;-88
2022/12/25 10:09:23;;;;;;;26.67;18.83;;;;;;;6.90;84.15;101149.87;1483465;88;21426;-87
2022/12/25 10:12:11;;;;;;;25.23;18.23;;;;;;;6.66;85.95;101154.55;1469678;88;21478;-88
2022/12/25 10:15:07;;;;;;;25.37;19.47;;;;;;;6.46;88.07;101149.33;1468935;88;21485;-85
2022/12/25 10:17:55;;;;;;;30.00;22.53;;;;;;;6.58;89.14;101143.71;1473391;88;22556;-86
2022/12/25 10:20:48;;;;;;;29.13;22.07;;;;;;;6.80;88.71;101142.26;1473591;88;22300;-86
2022/12/25 10:23:44;;;;;;;31.00;21.47;;;;;;;7.09;87.08;101148.95;1466318;88;22336;-88
2022/12/25 10:26:20;;;;;;;39.97;29.90;;;;;;;7.47;88.92;101153.30;1468150;88;21493;-89
2022/12/25 10:29:18;;;;;;;30.30;20.93;;;;;;;7.84;87.40;101149.33;1483554;88;21456;-86
2022/12/25 10:31:51;;;;;;;35.20;24.67;;;;;;;8.12;85.28;101148.97;1471818;88;21462;-86
2022/12/25 10:34:19;;;;;;;28.60;21.63;;;;;;;8.44;85.43;101152.34;1475960;88;21478;-89
2022/12/25 10:36:45;;;;;;;30.53;23.03;;;;;;;8.56;84.51;101148.77;1472328;88;21485;-88
2022/12/25 10:39:19;;;;;;;70.47;55.40;;;;;;;8.78;85.20;101148.45;1455714;88;22346;-88
2022/12/25 10:42:24;;;;;;;26.23;20.50;;;;;;;8.99;83.95;101150.73;1483675;88;21464;-88
2022/12/25 10:45:04;;;;;;;46.43;35.23;;;;;;;9.16;78.89;101141.98;1474697;88;22359;-87
2022/12/25 10:47:36;;;;;;;32.95;23.75;;;;;;;9.15;81.73;101141.59;1471824;88;21375;-87
2022/12/25 10:50:23;;;;;;;29.20;22.40;;;;;;;9.35;83.78;101140.89;1478499;88;21441;-87
2022/12/25 10:53:04;;;;;;;27.20;20.87;;;;;;;9.40;78.96;101151.06;1468485;88;21545;-89
2022/12/25 10:55:32;;;;;;;26.40;22.30;;;;;;;8.95;75.27;101149.30;1481246;88;21703;-87
2022/12/25 10:58:00;;;;;;;25.97;20.60;;;;;;;8.55;77.66;101150.22;1465558;88;21427;-88
2022/12/25 11:00:31;;;;;;;34.10;24.47;;;;;;;8.50;78.94;101165.06;1469902;88;21596;-87
2022/12/25 11:02:58;;;;;;;30.63;22.80;;;;;;;8.70;81.34;101151.67;1470270;88;21522;-87
2022/12/25 11:05:32;;;;;;;35.23;25.77;;;;;;;8.76;79.41;101155.64;1477189;88;21545;-88
2022/12/25 11:08:01;;;;;;;39.27;27.07;;;;;;;8.52;80.17;101159.69;1462749;88;21420;-85
2022/12/25 11:10:35;;;;;;;46.10;29.87;;;;;;;8.59;80.17;101168.80;1470810;88;21461;-88
2022/12/25 11:13:06;;;;;;;56.20;37.63;;;;;;;8.18;80.80;101170.57;1473817;88;21456;-88
2022/12/25 11:15:40;;;;;;;56.37;39.18;;;;;;;8.06;80.75;101174.48;1469607;88;21463;-88
2022/12/25 11:18:24;;;;;;;59.93;37.37;;;;;;;7.96;81.49;101178.73;1474281;88;21463;-88
2022/12/25 11:21:04;;;;;;;50.60;33.93;;;;;;;7.61;82.01;101179.49;1462132;88;21472;-87
2022/12/25 11:23:31;;;;;;;61.90;34.00;;;;;;;7.35;82.77;101177.88;1471896;88;21449;-88
2022/12/25 11:26:05;;;;;;;53.67;29.40;;;;;;;6.70;84.69;101179.72;1474399;88;21643;-89
2022/12/25 11:28:36;;;;;;;46.67;29.97;;;;;;;6.57;85.99;101180.17;1467943;88;21647;-88
2022/12/25 11:31:13;;;;;;;46.08;27.50;;;;;;;6.29;87.38;101190.37;1470567;88;21397;-87
2022/12/25 11:33:54;;;;;;;37.13;25.83;;;;;;;6.15;88.95;101194.38;1467123;88;22424;-87
2022/12/25 11:36:38;;;;;;;37.70;25.70;;;;;;;6.12;90.12;101199.83;1473187;88;22583;-89
2022/12/25 11:39:35;;;;;;;34.43;22.90;;;;;;;6.14;91.46;101197.48;1472967;88;21389;-88
2022/12/25 11:42:31;;;;;;;32.93;23.77;;;;;;;5.92;91.90;101201.92;1466096;88;21466;-88
2022/12/25 11:45:19;;;;;;;30.17;20.53;;;;;;;5.76;92.37;101194.67;1475945;88;22064;-89
2022/12/25 11:48:00;;;;;;;40.00;27.37;;;;;;;5.58;94.21;101192.28;1476762;88;21464;-89
2022/12/25 11:50:50;;;;;;;38.63;24.72;;;;;;;5.50;95.34;101185.83;1464520;88;21448;-88
2022/12/25 11:53:25;;;;;;;37.83;23.60;;;;;;;5.32;94.72;101175.53;1467292;88;22410;-87
2022/12/25 11:55:58;;;;;;;53.00;33.97;;;;;;;5.31;95.13;101181.70;1469176;88;21411;-88
2022/12/25 11:58:33;;;;;;;144.77;92.20;;;;;;;5.36;95.62;101182.27;1475154;88;22445;-87
2022/12/25 12:01:03;;;;;;;40.53;28.77;;;;;;;5.48;96.38;101179.81;1468480;88;21441;-88
2022/12/25 12:03:35;;;;;;;35.90;23.42;;;;;;;5.54;96.72;101173.70;1467237;88;22445;-88
2022/12/25 12:06:27;;;;;;;32.73;21.23;;;;;;;5.39;96.00;101170.26;1472939;88;22327;-88
2022/12/25 12:08:58;;;;;;;34.90;21.50;;;;;;;5.35;96.24;101166.59;1477995;88;21411;-89
2022/12/25 12:11:38;;;;;;;34.17;24.70;;;;;;;5.39;97.85;101162.38;1467219;88;22447;-90
2022/12/25 12:14:41;;;;;;;48.60;28.33;;;;;;;5.50;97.73;101172.69;1466605;88;21559;-87
2022/12/25 12:17:12;;;;;;;34.77;25.07;;;;;;;5.57;98.22;101170.88;1471014;88;21471;-87
2022/12/25 12:19:38;;;;;;;36.80;26.23;;;;;;;5.60;97.74;101158.02;1468368;88;21441;-87
2022/12/25 12:22:05;;;;;;;54.17;26.67;;;;;;;5.72;98.12;101159.02;1464927;88;22022;-88
2022/12/25 12:24:43;;;;;;;39.90;29.27;;;;;;;5.79;97.82;101161.16;1466554;88;22211;-82
2022/12/25 12:27:27;;;;;;;35.30;26.83;;;;;;;5.84;97.73;101166.97;1472159;88;21383;-82
2022/12/25 12:29:57;;;;;;;35.77;24.03;;;;;;;5.92;97.53;101161.67;1473591;88;21530;-87
2022/12/25 12:32:35;;;;;;;43.43;28.23;;;;;;;5.85;96.75;101167.81;1472921;88;22418;-88
2022/12/25 12:35:33;;;;;;;39.03;27.83;;;;;;;5.87;96.87;101187.79;1474617;88;22403;-86
2022/12/25 12:38:16;;;;;;;43.50;28.20;;;;;;;5.95;97.38;101182.05;1479359;88;21560;-91
2022/12/25 12:41:00;;;;;;;51.93;26.47;;;;;;;6.05;97.32;101177.06;1472066;88;21545;-87
2022/12/25 12:43:48;;;;;;;40.37;25.20;;;;;;;6.11;97.26;101176.66;1474986;88;21463;-91
2022/12/25 12:46:23;;;;;;;49.27;33.63;;;;;;;6.09;97.30;101179.37;1464569;88;21633;-89
2022/12/25 12:48:53;;;;;;;46.23;29.43;;;;;;;6.06;97.27;101183.98;1472288;88;21523;-86
2022/12/25 12:51:33;;;;;;;43.17;30.57;;;;;;;6.18;98.10;101177.92;1468071;88;22270;-90
2022/12/25 12:54:22;;;;;;;29.80;20.50;;;;;;;6.37;98.37;101187.24;1472590;88;21523;-90
2022/12/25 12:57:04;;;;;;;15.63;11.90;;;;;;;6.67;98.70;101178.59;1470407;88;21434;-86
2022/12/25 12:59:45;;;;;;;18.87;13.73;;;;;;;6.99;96.29;101182.98;1469326;88;22336;-91
2022/12/25 13:02:51;;;;;;;26.82;13.93;;;;;;;7.11;94.99;101184.41;1471297;88;21574;-91
2022/12/25 13:05:39;;;;;;;14.77;12.57;;;;;;;6.95;92.46;101189.39;1469582;88;21530;-91
2022/12/25 13:08:51;;;;;;;20.23;13.07;;;;;;;6.69;92.71;101193.80;1479106;88;21464;-91
2022/12/25 13:11:28;;;;;;;17.43;13.40;;;;;;;6.52;93.30;101198.05;1476970;88;21441;-90
2022/12/25 13:13:59;;;;;;;19.37;14.40;;;;;;;6.31;93.89;101194.58;1473531;88;21576;-91
2022/12/25 13:16:39;;;;;;;26.20;14.33;;;;;;;6.19;94.63;101194.56;1472471;88;21419;-91